createdAt,value
2022-12-06T00:00:26.375Z,101126.20
2022-12-06T00:01:58.215Z,101127.20
2022-12-06T00:03:30.243Z,101126.60
2022-12-06T00:05:02.091Z,101121.60
2022-12-06T00:06:48.383Z,101125.80
2022-12-06T00:08:20.335Z,101124.40
2022-12-06T00:09:52.331Z,101123.60
2022-12-06T00:11:28.549Z,101122.00
2022-12-06T00:13:00.337Z,101123.60
2022-12-06T00:14:32.071Z,101120.60
2022-12-06T00:16:08.238Z,101123.20
2022-12-06T00:17:43.061Z,101122.60
2022-12-06T00:19:19.312Z,101126.40
2022-12-06T00:20:51.095Z,101126.80
2022-12-06T00:22:22.825Z,101125.60
2022-12-06T00:24:01.280Z,101127.00
2022-12-06T00:25:36.036Z,101128.20
2022-12-06T00:27:07.758Z,101122.00
2022-12-06T00:28:40.403Z,101117.00
2022-12-06T00:30:12.372Z,101119.00
2022-12-06T00:31:44.945Z,101116.40
2022-12-06T00:33:16.794Z,101111.40
2022-12-06T00:34:48.525Z,101113.40
2022-12-06T00:36:27.762Z,101116.60
2022-12-06T00:37:59.546Z,101113.00
2022-12-06T00:39:48.402Z,101112.60
2022-12-06T00:41:24.954Z,101109.60
2022-12-06T00:42:56.706Z,101113.80
2022-12-06T00:44:28.595Z,101113.40
2022-12-06T00:46:00.927Z,101115.40
2022-12-06T00:47:32.727Z,101114.80
2022-12-06T00:49:07.662Z,101110.20
2022-12-06T00:50:39.423Z,101112.60
2022-12-06T00:52:13.562Z,101113.00
2022-12-06T00:53:45.738Z,101114.00
2022-12-06T00:55:17.994Z,101122.00
2022-12-06T00:56:49.767Z,101118.60
2022-12-06T00:58:22.322Z,101119.40
2022-12-06T00:59:54.087Z,101122.40
2022-12-06T01:01:30.795Z,101122.40
2022-12-06T01:03:02.810Z,101118.60
2022-12-06T01:04:37.000Z,101120.60
2022-12-06T01:06:13.222Z,101120.60
2022-12-06T01:07:45.016Z,101124.00
2022-12-06T01:09:16.864Z,101122.80
2022-12-06T01:10:55.846Z,101113.20
2022-12-06T01:12:27.581Z,101118.80
2022-12-06T01:13:59.803Z,101116.00
2022-12-06T01:15:32.511Z,101119.80
2022-12-06T01:17:04.345Z,101123.40
2022-12-06T01:18:37.406Z,101122.40
2022-12-06T01:20:10.058Z,101117.00
2022-12-06T01:21:41.863Z,101118.40
2022-12-06T01:23:15.443Z,101119.40
2022-12-06T01:24:48.139Z,101123.80
2022-12-06T01:26:38.600Z,101122.20
2022-12-06T01:28:10.334Z,101119.40
2022-12-06T01:29:42.190Z,101125.40
2022-12-06T01:31:15.507Z,101125.60
2022-12-06T01:32:47.286Z,101128.80
2022-12-06T01:34:19.100Z,101126.40
2022-12-06T01:35:50.946Z,101124.00
2022-12-06T01:37:22.879Z,101127.60
2022-12-06T01:38:58.548Z,101127.00
2022-12-06T01:40:30.440Z,101132.20
2022-12-06T01:42:02.275Z,101128.00
2022-12-06T01:43:44.478Z,101129.00
2022-12-06T01:45:16.333Z,101128.20
2022-12-06T01:46:48.436Z,101127.80
2022-12-06T01:48:25.435Z,101126.20
2022-12-06T01:50:06.285Z,101126.60
2022-12-06T01:51:43.892Z,101125.80
2022-12-06T01:53:19.308Z,101121.40
2022-12-06T01:54:54.762Z,101118.60
2022-12-06T01:56:26.925Z,101114.40
2022-12-06T01:58:05.822Z,101120.60
2022-12-06T01:59:38.051Z,101117.60
2022-12-06T02:01:11.492Z,101112.40
2022-12-06T02:02:44.480Z,101110.80
2022-12-06T02:04:18.886Z,101110.40
2022-12-06T02:05:52.278Z,101103.00
2022-12-06T02:07:27.383Z,101103.40
2022-12-06T02:09:04.883Z,101108.40
2022-12-06T02:10:37.762Z,101105.80
2022-12-06T02:12:15.511Z,101111.20
2022-12-06T02:13:47.867Z,101107.60
2022-12-06T02:29:18.363Z,101103.60
2022-12-06T02:31:00.308Z,101100.40
2022-12-06T02:32:39.941Z,101100.00
2022-12-06T02:34:40.584Z,101096.20
2022-12-06T02:36:34.471Z,101099.20
2022-12-06T02:38:16.872Z,101097.20
2022-12-06T02:40:08.851Z,101095.00
2022-12-06T02:41:53.343Z,101093.80
2022-12-06T02:43:51.819Z,101097.40
2022-12-06T02:45:34.203Z,101095.00
2022-12-06T02:47:14.517Z,101092.00
2022-12-06T02:48:51.814Z,101095.40
2022-12-06T02:50:35.279Z,101092.20
2022-12-06T02:52:07.463Z,101091.60
2022-12-06T02:53:48.657Z,101087.80
2022-12-06T02:55:24.325Z,101088.60
2022-12-06T02:56:56.075Z,101086.00
2022-12-06T02:58:27.756Z,101091.00
2022-12-06T02:59:59.718Z,101091.80
2022-12-06T03:01:37.337Z,101085.60
2022-12-06T03:03:15.434Z,101085.80
2022-12-06T03:05:22.434Z,101086.40
2022-12-06T03:07:21.487Z,101085.80
2022-12-06T03:09:05.210Z,101088.20
2022-12-06T03:10:58.434Z,101083.80
2022-12-06T03:12:45.210Z,101083.80
2022-12-06T03:16:32.809Z,101085.40
2022-12-06T03:18:18.462Z,101081.40
2022-12-06T03:20:00.164Z,101082.60
2022-12-06T03:21:43.989Z,101084.00
2022-12-06T03:23:28.059Z,101084.60
2022-12-06T03:25:03.734Z,101090.40
2022-12-06T03:26:39.414Z,101088.80
2022-12-06T03:28:16.737Z,101089.80
2022-12-06T03:29:58.232Z,101090.00
2022-12-06T03:31:36.877Z,101088.60
2022-12-06T03:33:11.458Z,101092.40
2022-12-06T03:34:49.907Z,101093.80
2022-12-06T03:36:24.915Z,101088.00
2022-12-06T03:38:12.509Z,101088.40
2022-12-06T03:40:18.396Z,101092.80
2022-12-06T03:41:57.780Z,101091.00
2022-12-06T03:43:30.979Z,101087.20
2022-12-06T03:45:04.677Z,101084.40
2022-12-06T03:46:47.790Z,101086.40
2022-12-06T03:48:33.167Z,101087.60
2022-12-06T03:50:13.945Z,101089.60
2022-12-06T03:51:46.835Z,101085.60
2022-12-06T03:53:22.540Z,101086.60
2022-12-06T03:54:54.428Z,101087.80
2022-12-06T03:56:29.413Z,101083.00
2022-12-06T03:58:01.266Z,101082.80
2022-12-06T03:59:34.574Z,101083.00
2022-12-06T04:01:09.486Z,101077.40
2022-12-06T04:02:42.017Z,101080.00
2022-12-06T04:04:14.151Z,101082.80
2022-12-06T04:05:46.135Z,101079.80
2022-12-06T04:07:23.191Z,101082.20
2022-12-06T04:09:15.309Z,101083.80
2022-12-06T04:10:47.345Z,101079.00
2022-12-06T04:12:38.386Z,101083.40
2022-12-06T04:14:10.578Z,101079.60
2022-12-06T04:15:43.018Z,101081.40
2022-12-06T04:17:35.185Z,101081.20
2022-12-06T04:19:07.018Z,101079.20
2022-12-06T04:21:19.993Z,101081.00
2022-12-06T04:23:05.222Z,101078.60
2022-12-06T04:24:37.060Z,101076.80
2022-12-06T04:26:14.935Z,101080.80
2022-12-06T04:28:05.227Z,101078.60
2022-12-06T04:29:55.539Z,101078.80
2022-12-06T04:31:47.977Z,101075.00
2022-12-06T04:33:39.259Z,101076.00
2022-12-06T04:35:29.583Z,101078.80
2022-12-06T04:37:20.354Z,101074.40
2022-12-06T04:38:52.239Z,101074.20
2022-12-06T04:40:24.103Z,101078.00
2022-12-06T04:42:16.830Z,101075.80
2022-12-06T04:43:48.668Z,101075.80
2022-12-06T04:45:20.447Z,101076.60
2022-12-06T04:46:52.303Z,101073.40
2022-12-06T04:48:24.627Z,101078.20
2022-12-06T04:49:56.490Z,101079.40
2022-12-06T04:51:29.081Z,101076.20
2022-12-06T04:53:00.872Z,101078.60
2022-12-06T04:54:33.430Z,101080.80
2022-12-06T04:56:05.778Z,101078.40
2022-12-06T04:57:37.587Z,101078.20
2022-12-06T04:59:11.811Z,101077.00
2022-12-06T05:00:48.671Z,101074.80
2022-12-06T05:02:20.548Z,101079.20
2022-12-06T05:03:52.868Z,101075.20
2022-12-06T05:05:25.232Z,101071.80
2022-12-06T05:06:56.967Z,101073.00
2022-12-06T05:08:28.884Z,101068.60
2022-12-06T05:10:01.023Z,101065.60
2022-12-06T05:11:33.427Z,101070.00
2022-12-06T05:13:07.315Z,101064.80
2022-12-06T05:14:39.394Z,101066.20
2022-12-06T05:16:11.869Z,101064.40
2022-12-06T05:17:44.151Z,101063.80
2022-12-06T05:19:15.949Z,101064.20
2022-12-06T05:20:47.891Z,101058.80
2022-12-06T05:22:19.758Z,101060.00
2022-12-06T05:23:57.276Z,101059.20
2022-12-06T05:25:29.677Z,101060.60
2022-12-06T05:27:01.495Z,101061.60
2022-12-06T05:28:35.339Z,101061.00
2022-12-06T05:30:10.311Z,101061.40
2022-12-06T05:31:42.115Z,101063.00
2022-12-06T05:33:14.001Z,101067.20
2022-12-06T05:34:47.953Z,101062.80
2022-12-06T05:36:27.101Z,101065.80
2022-12-06T05:37:59.006Z,101060.40
2022-12-06T05:39:30.948Z,101064.00
2022-12-06T05:41:04.188Z,101059.80
2022-12-06T05:42:36.045Z,101069.60
2022-12-06T05:44:12.525Z,101065.60
2022-12-06T05:45:44.916Z,101064.40
2022-12-06T05:47:17.687Z,101060.80
2022-12-06T05:48:50.633Z,101062.20
2022-12-06T05:50:22.430Z,101056.20
2022-12-06T05:51:54.367Z,101055.40
2022-12-06T05:53:26.320Z,101053.40
2022-12-06T05:54:58.387Z,101055.60
2022-12-06T05:56:30.256Z,101055.20
2022-12-06T05:58:02.461Z,101060.20
2022-12-06T05:59:37.284Z,101056.60
2022-12-06T06:01:09.716Z,101060.40
2022-12-06T06:02:42.152Z,101056.80
2022-12-06T06:04:16.342Z,101061.40
2022-12-06T06:05:51.026Z,101058.60
2022-12-06T06:07:22.771Z,101054.80
2022-12-06T06:08:55.645Z,101055.80
2022-12-06T06:10:28.400Z,101057.80
2022-12-06T06:12:00.736Z,101058.20
2022-12-06T06:13:32.703Z,101054.00
2022-12-06T06:15:07.684Z,101054.40
2022-12-06T06:16:40.031Z,101055.20
2022-12-06T06:18:12.338Z,101053.00
2022-12-06T06:19:51.317Z,101052.20
2022-12-06T06:21:23.676Z,101053.00
2022-12-06T06:22:56.066Z,101053.80
2022-12-06T06:24:27.947Z,101051.80
2022-12-06T06:25:59.834Z,101056.20
2022-12-06T06:27:38.062Z,101057.20
2022-12-06T06:29:10.008Z,101057.60
2022-12-06T06:30:41.996Z,101059.60
2022-12-06T06:32:14.009Z,101057.20
2022-12-06T06:33:45.917Z,101060.40
2022-12-06T06:35:17.836Z,101060.80
2022-12-06T06:36:49.640Z,101057.80
2022-12-06T06:38:21.744Z,101058.00
2022-12-06T06:39:53.535Z,101060.20
2022-12-06T06:41:29.295Z,101059.60
2022-12-06T06:43:18.128Z,101066.20
2022-12-06T06:44:50.522Z,101062.40
2022-12-06T06:46:22.333Z,101060.20
2022-12-06T06:47:54.309Z,101060.20
2022-12-06T06:49:26.264Z,101061.20
2022-12-06T06:51:08.777Z,101059.40
2022-12-06T06:52:40.653Z,101057.20
2022-12-06T06:54:13.071Z,101061.80
2022-12-06T06:55:46.308Z,101063.60
2022-12-06T06:57:18.675Z,101062.40
2022-12-06T06:58:51.305Z,101062.40
2022-12-06T07:00:24.302Z,101059.00
2022-12-06T07:01:56.728Z,101062.20
2022-12-06T07:03:29.561Z,101056.60
2022-12-06T07:05:01.961Z,101061.40
2022-12-06T07:06:33.811Z,101062.20
2022-12-06T07:08:06.235Z,101061.20
2022-12-06T07:09:39.302Z,101064.00
2022-12-06T07:11:12.810Z,101063.80
2022-12-06T07:12:44.724Z,101060.60
2022-12-06T07:14:16.553Z,101061.20
2022-12-06T07:15:49.380Z,101059.40
2022-12-06T07:17:21.297Z,101061.20
2022-12-06T07:18:53.761Z,101064.00
2022-12-06T07:20:27.161Z,101066.20
2022-12-06T07:21:59.155Z,101064.60
2022-12-06T07:23:36.097Z,101067.00
2022-12-06T07:25:08.660Z,101070.60
2022-12-06T07:26:40.570Z,101070.80
2022-12-06T07:28:12.610Z,101067.60
2022-12-06T07:29:44.528Z,101067.80
2022-12-06T07:31:20.406Z,101067.00
2022-12-06T07:32:52.345Z,101068.00
2022-12-06T07:34:24.133Z,101070.80
2022-12-06T07:36:11.907Z,101070.20
2022-12-06T07:37:45.876Z,101066.80
2022-12-06T07:39:17.822Z,101070.40
2022-12-06T07:41:04.441Z,101063.20
2022-12-06T07:42:57.497Z,101065.00
2022-12-06T07:45:02.797Z,101065.20
2022-12-06T07:46:39.205Z,101067.80
2022-12-06T07:48:12.055Z,101068.60
2022-12-06T07:49:43.979Z,101072.40
2022-12-06T07:51:15.835Z,101070.60
2022-12-06T07:52:50.945Z,101072.60
2022-12-06T07:54:25.179Z,101077.00
2022-12-06T07:55:57.194Z,101078.20
2022-12-06T07:57:29.368Z,101077.80
2022-12-06T07:59:02.224Z,101077.60
2022-12-06T08:00:34.928Z,101081.40
2022-12-06T08:02:08.209Z,101078.40
2022-12-06T08:03:39.936Z,101082.80
2022-12-06T08:05:12.875Z,101079.80
2022-12-06T08:06:45.619Z,101082.20
2022-12-06T08:08:19.946Z,101079.40
2022-12-06T08:09:54.553Z,101082.40
2022-12-06T08:11:26.714Z,101086.60
2022-12-06T08:12:58.564Z,101087.20
2022-12-06T08:14:30.552Z,101085.80
2022-12-06T08:16:13.411Z,101090.80
2022-12-06T08:17:47.453Z,101086.40
2022-12-06T08:19:19.540Z,101093.40
2022-12-06T08:20:53.259Z,101086.60
2022-12-06T08:22:25.219Z,101094.80
2022-12-06T08:23:57.178Z,101091.80
2022-12-06T08:25:29.108Z,101096.40
2022-12-06T08:27:00.960Z,101101.40
2022-12-06T08:28:35.436Z,101101.40
2022-12-06T08:30:09.233Z,101105.00
2022-12-06T08:31:41.753Z,101108.00
2022-12-06T08:33:13.571Z,101106.80
2022-12-06T08:34:45.355Z,101107.40
2022-12-06T08:36:23.000Z,101109.80
2022-12-06T08:37:54.795Z,101105.40
2022-12-06T08:39:28.492Z,101105.20
2022-12-06T08:41:00.390Z,101105.20
2022-12-06T08:42:32.218Z,101104.00
2022-12-06T08:44:05.379Z,101101.60
2022-12-06T08:45:37.278Z,101096.20
2022-12-06T08:47:11.214Z,101096.80
2022-12-06T08:48:43.771Z,101098.60
2022-12-06T08:50:15.659Z,101095.60
2022-12-06T08:51:47.815Z,101099.00
2022-12-06T08:53:19.633Z,101098.80
2022-12-06T08:54:51.400Z,101103.60
2022-12-06T08:56:24.645Z,101108.00
2022-12-06T08:57:56.499Z,101109.00
2022-12-06T08:59:28.275Z,101109.00
2022-12-06T09:01:00.081Z,101107.80
2022-12-06T09:02:31.950Z,101112.60
2022-12-06T09:04:05.669Z,101117.60
2022-12-06T09:05:37.710Z,101118.00
2022-12-06T09:07:11.801Z,101121.00
2022-12-06T09:08:46.647Z,101120.20
2022-12-06T09:10:18.853Z,101119.20
2022-12-06T09:11:52.237Z,101117.60
2022-12-06T09:13:24.137Z,101118.80
2022-12-06T09:14:56.766Z,101123.60
2022-12-06T09:16:30.237Z,101125.80
2022-12-06T09:18:02.438Z,101123.60
2022-12-06T09:19:35.388Z,101120.80
2022-12-06T09:21:12.652Z,101123.60
2022-12-06T09:22:45.370Z,101124.60
2022-12-06T09:24:19.979Z,101126.80
2022-12-06T09:25:51.840Z,101124.60
2022-12-06T09:27:23.765Z,101126.80
2022-12-06T09:28:56.784Z,101121.20
2022-12-06T09:30:29.498Z,101121.80
2022-12-06T09:32:01.716Z,101116.40
2022-12-06T09:33:34.940Z,101119.80
2022-12-06T09:35:12.330Z,101121.60
2022-12-06T09:37:04.014Z,101121.60
2022-12-06T09:38:40.576Z,101119.40
2022-12-06T09:40:24.733Z,101121.60
2022-12-06T09:42:20.876Z,101128.80
2022-12-06T09:44:21.706Z,101125.20
2022-12-06T09:46:14.860Z,101129.20
2022-12-06T09:48:03.356Z,101125.40
2022-12-06T09:50:18.624Z,101129.20
2022-12-06T09:52:30.536Z,101133.20
2022-12-06T09:54:23.632Z,101127.00
2022-12-06T09:56:13.867Z,101124.80
2022-12-06T09:58:31.182Z,101127.40
2022-12-06T10:00:24.593Z,101129.80
2022-12-06T10:02:35.901Z,101126.40
2022-12-06T10:04:29.912Z,101130.20
2022-12-06T10:06:09.008Z,101127.60
2022-12-06T10:08:24.180Z,101129.20
2022-12-06T10:10:40.574Z,101122.20
2022-12-06T10:13:08.579Z,101122.20
2022-12-06T10:15:05.463Z,101115.00
2022-12-06T10:17:09.660Z,101113.80
2022-12-06T10:19:03.380Z,101115.40
2022-12-06T10:20:46.051Z,101114.60
2022-12-06T10:22:50.565Z,101116.60
2022-12-06T10:24:49.833Z,101114.60
2022-12-06T10:26:49.727Z,101114.00
2022-12-06T10:28:38.311Z,101110.00
2022-12-06T10:30:14.537Z,101108.20
2022-12-06T10:32:13.839Z,101107.60
2022-12-06T10:34:12.060Z,101103.40
2022-12-06T10:35:53.284Z,101099.00
2022-12-06T10:40:14.550Z,101096.20
2022-12-06T10:42:44.315Z,101093.80
2022-12-06T10:44:40.946Z,101093.60
2022-12-06T10:46:43.630Z,101094.60
2022-12-06T10:48:38.294Z,101086.20
2022-12-06T10:50:27.626Z,101088.80
2022-12-06T10:52:08.357Z,101088.20
2022-12-06T10:53:49.822Z,101089.80
2022-12-06T10:55:36.825Z,101087.60
2022-12-06T10:57:21.558Z,101090.60
2022-12-06T10:59:21.422Z,101088.20
2022-12-06T11:01:05.837Z,101087.60
2022-12-06T11:02:45.958Z,101088.60
2022-12-06T11:04:32.071Z,101081.00
2022-12-06T11:06:28.612Z,101080.00
2022-12-06T11:08:13.709Z,101078.20
2022-12-06T11:09:52.050Z,101077.20
2022-12-06T11:11:36.454Z,101078.60
2022-12-06T11:13:29.440Z,101070.60
2022-12-06T11:15:36.816Z,101068.80
2022-12-06T11:17:22.111Z,101070.60
2022-12-06T11:19:14.212Z,101070.00
2022-12-06T11:21:01.762Z,101074.80
2022-12-06T11:23:25.601Z,101076.20
2022-12-06T11:25:22.914Z,101071.60
2022-12-06T11:27:16.007Z,101071.40
2022-12-06T11:29:06.032Z,101073.00
2022-12-06T11:30:38.044Z,101069.60
2022-12-06T11:32:14.818Z,101066.60
2022-12-06T11:33:46.854Z,101070.40
2022-12-06T11:35:28.926Z,101066.40
2022-12-06T11:37:03.885Z,101068.00
2022-12-06T11:38:42.606Z,101064.80
2022-12-06T11:40:23.458Z,101064.00
2022-12-06T11:42:08.050Z,101059.40
2022-12-06T11:43:40.656Z,101062.80
2022-12-06T11:45:50.894Z,101064.20
2022-12-06T11:47:23.852Z,101060.00
2022-12-06T11:49:27.218Z,101057.80
2022-12-06T11:50:59.197Z,101059.60
2022-12-06T11:52:40.991Z,101065.40
2022-12-06T11:54:31.867Z,101059.40
2022-12-06T11:56:27.182Z,101062.40
2022-12-06T11:58:07.424Z,101066.80
2022-12-06T11:59:39.275Z,101063.60
2022-12-06T12:01:15.940Z,101058.60
2022-12-06T12:02:51.960Z,101064.20
2022-12-06T12:04:40.029Z,101064.60
2022-12-06T12:06:25.663Z,101062.80
2022-12-06T12:08:07.743Z,101064.60
2022-12-06T12:10:02.782Z,101060.80
2022-12-06T12:11:40.475Z,101057.00
2022-12-06T12:13:32.268Z,101057.60
2022-12-06T12:15:05.250Z,101059.00
2022-12-06T12:16:48.329Z,101056.00
2022-12-06T12:18:30.139Z,101054.80
2022-12-06T12:20:18.197Z,101055.60
2022-12-06T12:21:54.250Z,101059.20
2022-12-06T12:23:38.241Z,101057.00
2022-12-06T12:25:31.631Z,101056.40
2022-12-06T12:27:33.411Z,101052.20
2022-12-06T12:29:08.130Z,101054.00
2022-12-06T12:30:53.231Z,101060.40
2022-12-06T12:32:25.079Z,101050.40
2022-12-06T12:34:27.948Z,101052.40
2022-12-06T12:36:02.366Z,101052.60
2022-12-06T12:37:37.434Z,101047.00
2022-12-06T12:39:39.086Z,101054.20
2022-12-06T12:41:39.848Z,101051.80
2022-12-06T12:43:16.624Z,101048.00
2022-12-06T12:44:48.943Z,101048.40
2022-12-06T12:46:22.807Z,101048.60
2022-12-06T12:48:04.357Z,101052.60
2022-12-06T12:49:38.530Z,101052.80
2022-12-06T12:51:36.693Z,101049.60
2022-12-06T12:53:38.446Z,101051.00
2022-12-06T12:55:20.317Z,101050.80
2022-12-06T12:56:52.655Z,101056.20
2022-12-06T12:58:24.429Z,101054.00
2022-12-06T12:59:56.270Z,101058.60
2022-12-06T13:01:48.051Z,101056.40
2022-12-06T13:05:34.943Z,101050.40
2022-12-06T13:07:34.832Z,101047.40
2022-12-06T13:09:19.823Z,101048.60
2022-12-06T13:10:59.317Z,101044.40
2022-12-06T13:12:51.307Z,101046.00
2022-12-06T13:14:26.465Z,101048.60
2022-12-06T13:16:01.894Z,101044.00
2022-12-06T13:17:41.865Z,101038.00
2022-12-06T13:19:21.225Z,101036.40
2022-12-06T13:21:00.840Z,101037.20
2022-12-06T13:22:40.068Z,101041.80
2022-12-06T13:24:12.009Z,101042.40
2022-12-06T13:26:09.454Z,101046.00
2022-12-06T13:27:47.998Z,101045.60
2022-12-06T13:29:30.590Z,101040.60
2022-12-06T13:31:13.921Z,101039.00
2022-12-06T13:33:07.159Z,101041.40
2022-12-06T13:34:50.123Z,101039.20
2022-12-06T13:36:25.405Z,101033.40
2022-12-06T13:38:03.340Z,101031.60
2022-12-06T13:39:40.492Z,101036.00
2022-12-06T13:41:14.918Z,101038.60
2022-12-06T13:42:46.887Z,101033.40
2022-12-06T13:44:55.892Z,101038.40
2022-12-06T13:46:30.464Z,101027.40
2022-12-06T13:48:02.287Z,101031.00
2022-12-06T13:49:48.604Z,101028.00
2022-12-06T13:51:32.596Z,101025.80
2022-12-06T13:53:04.587Z,101029.60
2022-12-06T13:54:36.903Z,101026.40
2022-12-06T13:56:42.303Z,101026.80
2022-12-06T13:58:16.928Z,101028.60
2022-12-06T13:59:48.980Z,101028.80
2022-12-06T14:01:50.601Z,101025.20
2022-12-06T14:03:23.489Z,101027.00
2022-12-06T14:04:55.471Z,101031.60
2022-12-06T14:06:46.211Z,101031.00
2022-12-06T14:08:19.295Z,101033.20
2022-12-06T14:09:53.262Z,101032.60
2022-12-06T14:13:01.177Z,101032.40
2022-12-06T14:14:33.691Z,101029.20
2022-12-06T14:16:08.355Z,101032.00
2022-12-06T14:41:58.818Z,101029.00
2022-12-06T14:43:33.793Z,101023.80
2022-12-06T14:45:16.209Z,101019.20
2022-12-06T14:46:49.701Z,101017.60
2022-12-06T14:48:23.120Z,101018.60
2022-12-06T14:50:17.746Z,101014.80
2022-12-06T14:51:52.967Z,101013.60
2022-12-06T14:53:36.541Z,101012.20
2022-12-06T14:55:20.003Z,101011.00
2022-12-06T14:56:52.710Z,101011.60
2022-12-06T14:58:33.472Z,101007.80
2022-12-06T15:00:22.594Z,101010.60
2022-12-06T15:01:59.385Z,101006.80
2022-12-06T15:03:44.206Z,101013.00
2022-12-06T15:05:34.574Z,101011.00
2022-12-06T15:07:06.697Z,101013.60
2022-12-06T15:08:41.935Z,101010.20
2022-12-06T15:10:21.673Z,101008.80
2022-12-06T15:12:40.384Z,101008.20
2022-12-06T15:14:50.929Z,101011.60
2022-12-06T15:16:23.274Z,101011.60
2022-12-06T15:17:55.223Z,101014.00
2022-12-06T15:19:29.488Z,101016.80
2022-12-06T15:21:01.341Z,101016.00
2022-12-06T15:22:38.146Z,101017.20
2022-12-06T15:24:26.587Z,101019.20
2022-12-06T15:25:58.858Z,101020.40
2022-12-06T15:27:31.428Z,101022.20
2022-12-06T15:29:03.218Z,101019.80
2022-12-06T15:30:34.987Z,101020.80
2022-12-06T15:32:10.014Z,101018.40
2022-12-06T15:33:42.093Z,101021.60
2022-12-06T15:35:18.546Z,101019.00
2022-12-06T15:36:59.539Z,101022.60
2022-12-06T15:38:42.926Z,101021.80
2022-12-06T15:40:15.573Z,101020.00
2022-12-06T15:41:47.568Z,101013.40
2022-12-06T15:43:34.414Z,101015.80
2022-12-06T15:45:14.731Z,101010.20
2022-12-06T15:46:47.544Z,101008.00
2022-12-06T15:48:19.883Z,101008.60
2022-12-06T15:49:53.292Z,101007.80
2022-12-06T15:51:27.349Z,101010.40
2022-12-06T15:52:59.149Z,101010.20
2022-12-06T15:54:30.918Z,101013.20
2022-12-06T15:56:02.781Z,101009.00
2022-12-06T15:57:34.647Z,101009.60
2022-12-06T15:59:07.195Z,101009.40
2022-12-06T16:00:39.445Z,101007.20
2022-12-06T16:02:17.755Z,101007.20
2022-12-06T16:03:53.251Z,101007.80
2022-12-06T16:05:25.560Z,101010.80
2022-12-06T16:06:57.377Z,101006.80
2022-12-06T16:08:29.317Z,101010.00
2022-12-06T16:22:07.448Z,101017.80
2022-12-06T16:24:14.735Z,101015.00
2022-12-06T16:25:48.208Z,101013.80
2022-12-06T16:27:20.054Z,101008.20
2022-12-06T16:28:51.910Z,101011.20
2022-12-06T16:30:35.542Z,101006.60
2022-12-06T16:32:08.197Z,101004.80
2022-12-06T16:33:41.101Z,101012.00
2022-12-06T16:35:13.283Z,101015.20
2022-12-06T16:37:06.823Z,101009.40
2022-12-06T16:38:39.963Z,101008.60
2022-12-06T16:40:23.060Z,101010.60
2022-12-06T16:41:57.423Z,101006.80
2022-12-06T16:43:30.902Z,101004.20
2022-12-06T16:45:05.919Z,101004.20
2022-12-06T16:46:39.733Z,101005.60
2022-12-06T16:48:20.513Z,101002.40
2022-12-06T17:03:21.446Z,100985.40
2022-12-06T17:04:54.829Z,100985.40
2022-12-06T17:06:30.340Z,100979.60
2022-12-06T17:08:02.556Z,100979.00
2022-12-06T17:09:35.122Z,100977.00
2022-12-06T17:11:49.512Z,100977.60
2022-12-06T17:13:22.195Z,100980.00
2022-12-06T17:39:09.007Z,100969.80
2022-12-06T17:40:41.710Z,100968.40
2022-12-06T17:42:33.670Z,100971.20
2022-12-06T17:44:07.642Z,100975.40
2022-12-06T17:45:39.528Z,100966.40
2022-12-06T17:47:12.399Z,100971.00
2022-12-06T17:48:44.957Z,100966.20
2022-12-06T17:50:17.333Z,100960.60
2022-12-06T17:51:50.362Z,100965.00
2022-12-06T17:53:22.088Z,100972.00
2022-12-06T17:54:53.925Z,100969.40
2022-12-06T17:56:35.882Z,100971.40
2022-12-06T17:58:07.816Z,100970.40
2022-12-06T17:59:45.552Z,100967.40
2022-12-06T18:01:17.522Z,100972.40
2022-12-06T18:02:50.355Z,100970.00
2022-12-06T18:04:22.439Z,100971.40
2022-12-06T18:05:55.184Z,100971.20
2022-12-06T18:07:27.159Z,100976.60
2022-12-06T18:09:01.074Z,100965.20
2022-12-06T18:10:32.850Z,100961.60
2022-12-06T18:12:05.107Z,100961.80
2022-12-06T18:13:36.851Z,100968.00
2022-12-06T18:15:29.426Z,100965.20
2022-12-06T18:17:02.654Z,100965.00
2022-12-06T18:18:34.594Z,100963.80
2022-12-06T18:20:09.190Z,100961.80
2022-12-06T18:21:41.959Z,100963.20
2022-12-06T18:23:14.132Z,100960.60
2022-12-06T18:24:46.075Z,100961.60
2022-12-06T18:26:20.577Z,100959.00
2022-12-06T18:27:52.703Z,100956.60
2022-12-06T18:29:24.638Z,100961.40
2022-12-06T18:30:56.513Z,100960.60
2022-12-06T18:32:29.115Z,100956.00
2022-12-06T18:34:02.259Z,100950.40
2022-12-06T18:35:36.698Z,100952.80
2022-12-06T18:37:09.311Z,100951.20
2022-12-06T18:38:42.969Z,100951.00
2022-12-06T18:40:14.941Z,100948.80
2022-12-06T18:41:46.856Z,100946.20
2022-12-06T18:43:19.259Z,100948.80
2022-12-06T18:44:56.508Z,100947.80
2022-12-06T18:46:31.732Z,100949.40
2022-12-06T18:48:04.014Z,100952.20
2022-12-06T18:49:35.894Z,100955.60
2022-12-06T18:51:11.129Z,100951.80
2022-12-06T18:52:42.896Z,100955.00
2022-12-06T18:54:14.811Z,100953.60
2022-12-06T18:55:47.116Z,100952.00
2022-12-06T18:57:19.636Z,100956.80
2022-12-06T18:58:52.470Z,100955.40
2022-12-06T19:00:26.089Z,100955.60
2022-12-06T19:01:58.692Z,100951.80
2022-12-06T19:03:35.503Z,100951.40
2022-12-06T19:05:07.959Z,100958.00
2022-12-06T19:06:40.255Z,100956.80
2022-12-06T19:08:12.102Z,100953.60
2022-12-06T19:09:43.899Z,100949.40
2022-12-06T19:11:19.854Z,100950.40
2022-12-06T19:12:51.627Z,100948.20
2022-12-06T19:14:23.613Z,100946.00
2022-12-06T19:16:02.679Z,100944.80
2022-12-06T19:17:36.008Z,100943.20
2022-12-06T19:19:16.659Z,100944.20
2022-12-06T19:20:48.774Z,100946.60
2022-12-06T19:22:21.135Z,100947.20
2022-12-06T19:23:57.617Z,100946.00
2022-12-06T19:25:29.499Z,100943.40
2022-12-06T19:27:01.372Z,100944.40
2022-12-06T19:28:34.217Z,100944.00
2022-12-06T19:30:08.217Z,100942.40
2022-12-06T19:31:40.302Z,100938.40
2022-12-06T19:33:12.173Z,100940.20
2022-12-06T19:34:44.108Z,100938.80
2022-12-06T19:36:23.677Z,100941.40
2022-12-06T19:37:55.513Z,100942.00
2022-12-06T19:39:27.938Z,100937.60
2022-12-06T19:41:10.406Z,100936.00
2022-12-06T19:43:02.586Z,100935.20
2022-12-06T19:44:43.120Z,100927.60
2022-12-06T19:46:22.410Z,100930.80
2022-12-06T19:47:55.716Z,100927.20
2022-12-06T19:49:29.394Z,100926.60
2022-12-06T19:51:01.646Z,100929.00
2022-12-06T19:52:34.352Z,100933.80
2022-12-06T19:54:09.446Z,100929.60
2022-12-06T19:55:46.572Z,100926.20
2022-12-06T19:59:14.723Z,100930.80
2022-12-06T20:01:00.582Z,100928.00
2022-12-06T20:02:36.524Z,100935.20
2022-12-06T20:06:43.278Z,100934.40
2022-12-06T20:08:39.179Z,100940.00
2022-12-06T20:10:13.904Z,100935.60
2022-12-06T20:12:02.900Z,100932.20
2022-12-06T20:13:41.171Z,100932.00
2022-12-06T20:15:17.393Z,100931.40
2022-12-06T20:16:54.614Z,100928.80
2022-12-06T20:18:31.370Z,100927.40
2022-12-06T20:20:16.592Z,100924.40
2022-12-06T20:21:50.518Z,100927.20